Accueil
METAR-TAF:

METAR-TAF

Aéroports :

Grozny, Russie

latitude: 43-23-18N, longitude: 045-41-59E, altitude: 167 m

Observation

Le bulletin a été fait il y a 18 minutes, à 15:00 UTC
Vent 6 kt de est
Température 22°C
Humidité 50%
Pression 1007 hPa
Visibilité 10 km ou plus
pas de nuages en-dessous de 1500 mètres et pas de cumulonimbus.

METAR: URMG 171500Z 10003MPS CAVOK 22/11 Q1007 R08/090070 NOSIG RMK QFE741/0988

Heure: 18:18 (15:18 UTC)

Prévision

Le bulletin a été fait il y a 1 heure et 18 minutes, à 14:00 UTC
Prévision valable du 17 à 15 UTC au 17 à 24 UTC
Vent 6 kt de est avec des rafales jusqu'à 16 kt
Visibilité 10 km ou plus
Nuages épars à une hauteur de 5500 ft
Temporairement
du 17 à 15 UTC au 17 à 18 UTC
Vent 10 kt de est/sud-est avec des rafales jusqu'à 23 kt

TAF: URMG 171400Z 1715/1724 08003G08MPS 9999 SCT055 TEMPO 1715/1718 11005G12MPS

Observations et prévisions météorologiques de plus de 4000 aéroports (messages METAR et TAF).

Les stations disponibles sont représentées par des disques jaunes et rouges sur la carte.

Passer la souris dessus pour voir le nom de la station.

Cliquer dessus pour voir les observations et prévisions météorologiques.

Pour changer de carte: cliquez sur les boutons verts avec une croix noire pour zoomer, sur le bouton vert avec un tiret pour effectuer un zoom arrière, ou sur les flèches vertes pour les cartes adjacentes.


METAR-TAF: